Terminal Aerodrome Forecast
Issued by NWS

Current Version | Previous Version | Graphics & Text | Print | Product List | Glossary On
Versions: 1 2 3 4 5 6 7 8 9 10 11 12 13 14 15 16 17 18 19 20 21 22 23 24
000
FTUS41 KRLX 010500
TAFCKB
TAF
KCKB 010539Z 0106/0206 VRB02KT P6SM -SHRA OVC015
     FM010800 00000KT 5SM -SHRA BR OVC008
     FM011000 00000KT 3SM BR OVC007
     FM011400 22004KT 6SM BR BKN015
     FM011600 23007KT P6SM BKN030
     FM011800 24008KT P6SM BKN035
     FM012000 23007KT P6SM SCT040
     FM020100 21002KT P6SM SCT035=

USA.gov is the U.S. government's official web portal to all federal, state and local government web resources and services.